sensor_id;sensor_type;location;lat;lon;timestamp;P1;durP1;ratioP1;P2;durP2;ratioP2
18574;SDS011;9417;16.484;102.872;2022-12-07T00:01:04;12.43;;;7.28;;
18574;SDS011;9417;16.484;102.872;2022-12-07T00:03:12;11.13;;;7.05;;
18574;SDS011;9417;16.484;102.872;2022-12-07T00:05:19;10.23;;;6.97;;
18574;SDS011;9417;16.484;102.872;2022-12-07T00:07:28;10.55;;;7.25;;
18574;SDS011;9417;16.484;102.872;2022-12-07T00:09:35;10.13;;;6.93;;
18574;SDS011;9417;16.484;102.872;2022-12-07T00:11:42;11.88;;;6.75;;
18574;SDS011;9417;16.484;102.872;2022-12-07T00:13:52;11.00;;;6.80;;
18574;SDS011;9417;16.484;102.872;2022-12-07T00:16:01;10.05;;;7.05;;
18574;SDS011;9417;16.484;102.872;2022-12-07T00:18:09;9.27;;;6.30;;
18574;SDS011;9417;16.484;102.872;2022-12-07T00:20:16;8.75;;;6.10;;
18574;SDS011;9417;16.484;102.872;2022-12-07T00:22:23;13.23;;;6.03;;
18574;SDS011;9417;16.484;102.872;2022-12-07T00:24:32;8.45;;;5.50;;
18574;SDS011;9417;16.484;102.872;2022-12-07T00:26:39;7.65;;;4.88;;
18574;SDS011;9417;16.484;102.872;2022-12-07T00:28:48;7.40;;;4.43;;
18574;SDS011;9417;16.484;102.872;2022-12-07T00:30:59;6.15;;;3.72;;
18574;SDS011;9417;16.484;102.872;2022-12-07T00:33:08;6.35;;;3.72;;
18574;SDS011;9417;16.484;102.872;2022-12-07T00:35:15;4.65;;;3.40;;
18574;SDS011;9417;16.484;102.872;2022-12-07T00:37:22;4.40;;;3.55;;
18574;SDS011;9417;16.484;102.872;2022-12-07T00:39:30;5.13;;;3.58;;
18574;SDS011;9417;16.484;102.872;2022-12-07T00:41:39;5.88;;;3.15;;
18574;SDS011;9417;16.484;102.872;2022-12-07T00:43:46;5.15;;;3.17;;
18574;SDS011;9417;16.484;102.872;2022-12-07T00:45:54;4.88;;;3.15;;
18574;SDS011;9417;16.484;102.872;2022-12-07T00:48:01;4.75;;;2.72;;
18574;SDS011;9417;16.484;102.872;2022-12-07T00:50:09;4.55;;;2.88;;
18574;SDS011;9417;16.484;102.872;2022-12-07T00:52:16;4.72;;;3.13;;
18574;SDS011;9417;16.484;102.872;2022-12-07T00:54:23;3.83;;;2.70;;
18574;SDS011;9417;16.484;102.872;2022-12-07T00:56:32;3.40;;;2.55;;
18574;SDS011;9417;16.484;102.872;2022-12-07T00:58:40;4.07;;;2.47;;
18574;SDS011;9417;16.484;102.872;2022-12-07T01:00:47;4.60;;;2.30;;
18574;SDS011;9417;16.484;102.872;2022-12-07T01:02:54;4.35;;;2.38;;
18574;SDS011;9417;16.484;102.872;2022-12-07T01:05:01;3.33;;;2.38;;
18574;SDS011;9417;16.484;102.872;2022-12-07T01:07:09;4.60;;;2.88;;
18574;SDS011;9417;16.484;102.872;2022-12-07T01:09:16;2.83;;;2.15;;
18574;SDS011;9417;16.484;102.872;2022-12-07T01:11:24;3.38;;;2.63;;
18574;SDS011;9417;16.484;102.872;2022-12-07T01:13:35;3.25;;;2.17;;
18574;SDS011;9417;16.484;102.872;2022-12-07T01:15:42;3.92;;;2.50;;
18574;SDS011;9417;16.484;102.872;2022-12-07T01:17:50;2.83;;;2.00;;
18574;SDS011;9417;16.484;102.872;2022-12-07T01:19:58;4.32;;;2.17;;
18574;SDS011;9417;16.484;102.872;2022-12-07T01:22:05;4.10;;;2.50;;
18574;SDS011;9417;16.484;102.872;2022-12-07T01:24:12;3.30;;;2.20;;
18574;SDS011;9417;16.484;102.872;2022-12-07T01:26:20;3.17;;;1.90;;
18574;SDS011;9417;16.484;102.872;2022-12-07T01:28:28;2.85;;;1.83;;
18574;SDS011;9417;16.484;102.872;2022-12-07T01:30:37;3.70;;;1.80;;
18574;SDS011;9417;16.484;102.872;2022-12-07T01:32:44;2.50;;;1.75;;
18574;SDS011;9417;16.484;102.872;2022-12-07T01:34:52;2.33;;;1.70;;
18574;SDS011;9417;16.484;102.872;2022-12-07T01:36:58;2.92;;;1.90;;
18574;SDS011;9417;16.484;102.872;2022-12-07T01:39:06;3.00;;;2.05;;
18574;SDS011;9417;16.484;102.872;2022-12-07T01:41:15;3.17;;;2.20;;
18574;SDS011;9417;16.484;102.872;2022-12-07T01:43:22;4.20;;;2.13;;
18574;SDS011;9417;16.484;102.872;2022-12-07T01:45:38;3.78;;;2.08;;
18574;SDS011;9417;16.484;102.872;2022-12-07T01:47:48;3.20;;;1.98;;
18574;SDS011;9417;16.484;102.872;2022-12-07T01:49:58;8.07;;;2.40;;
18574;SDS011;9417;16.484;102.872;2022-12-07T01:52:09;3.03;;;1.63;;
18574;SDS011;9417;16.484;102.872;2022-12-07T01:54:21;4.13;;;1.90;;
18574;SDS011;9417;16.484;102.872;2022-12-07T01:56:29;3.08;;;1.90;;
18574;SDS011;9417;16.484;102.872;2022-12-07T01:58:37;3.13;;;2.08;;
18574;SDS011;9417;16.484;102.872;2022-12-07T02:00:46;47.63;;;30.42;;
18574;SDS011;9417;16.484;102.872;2022-12-07T02:02:54;10.80;;;8.32;;
18574;SDS011;9417;16.484;102.872;2022-12-07T02:05:06;4.78;;;2.92;;
18574;SDS011;9417;16.484;102.872;2022-12-07T02:07:13;4.93;;;2.20;;
18574;SDS011;9417;16.484;102.872;2022-12-07T02:09:21;2.60;;;2.00;;
18574;SDS011;9417;16.484;102.872;2022-12-07T02:11:28;2.80;;;1.70;;
18574;SDS011;9417;16.484;102.872;2022-12-07T02:13:35;3.53;;;2.00;;
18574;SDS011;9417;16.484;102.872;2022-12-07T02:18:20;2.38;;;1.60;;
18574;SDS011;9417;16.484;102.872;2022-12-07T02:20:38;3.65;;;2.10;;
18574;SDS011;9417;16.484;102.872;2022-12-07T02:23:07;3.95;;;2.15;;
18574;SDS011;9417;16.484;102.872;2022-12-07T02:25:43;4.18;;;2.10;;
18574;SDS011;9417;16.484;102.872;2022-12-07T02:28:07;8.48;;;5.18;;
18574;SDS011;9417;16.484;102.872;2022-12-07T02:30:26;8.73;;;5.05;;
18574;SDS011;9417;16.484;102.872;2022-12-07T02:32:40;3.00;;;2.05;;
18574;SDS011;9417;16.484;102.872;2022-12-07T02:34:55;3.58;;;2.28;;
18574;SDS011;9417;16.484;102.872;2022-12-07T02:37:09;3.53;;;2.05;;
18574;SDS011;9417;16.484;102.872;2022-12-07T02:39:24;3.55;;;1.67;;
18574;SDS011;9417;16.484;102.872;2022-12-07T02:41:40;2.10;;;1.52;;
18574;SDS011;9417;16.484;102.872;2022-12-07T02:43:53;2.45;;;1.48;;
18574;SDS011;9417;16.484;102.872;2022-12-07T02:46:05;2.30;;;1.42;;
18574;SDS011;9417;16.484;102.872;2022-12-07T02:48:16;2.03;;;1.40;;
18574;SDS011;9417;16.484;102.872;2022-12-07T02:50:24;2.60;;;1.40;;
18574;SDS011;9417;16.484;102.872;2022-12-07T02:52:31;3.65;;;1.70;;
18574;SDS011;9417;16.484;102.872;2022-12-07T02:54:39;2.63;;;1.70;;
18574;SDS011;9417;16.484;102.872;2022-12-07T02:56:47;2.10;;;1.45;;
18574;SDS011;9417;16.484;102.872;2022-12-07T02:58:59;3.53;;;1.75;;
18574;SDS011;9417;16.484;102.872;2022-12-07T03:01:18;3.67;;;1.60;;
18574;SDS011;9417;16.484;102.872;2022-12-07T03:03:33;3.03;;;1.48;;
18574;SDS011;9417;16.484;102.872;2022-12-07T03:05:50;2.55;;;1.60;;
18574;SDS011;9417;16.484;102.872;2022-12-07T03:08:06;2.47;;;1.42;;
18574;SDS011;9417;16.484;102.872;2022-12-07T03:10:21;2.70;;;1.42;;
18574;SDS011;9417;16.484;102.872;2022-12-07T03:12:35;2.42;;;1.50;;
18574;SDS011;9417;16.484;102.872;2022-12-07T03:14:49;2.13;;;1.30;;
18574;SDS011;9417;16.484;102.872;2022-12-07T03:17:05;2.63;;;1.65;;
18574;SDS011;9417;16.484;102.872;2022-12-07T03:19:19;4.07;;;1.40;;
18574;SDS011;9417;16.484;102.872;2022-12-07T03:21:31;3.13;;;1.63;;
18574;SDS011;9417;16.484;102.872;2022-12-07T03:23:41;2.03;;;1.40;;
18574;SDS011;9417;16.484;102.872;2022-12-07T03:25:51;2.28;;;1.70;;
18574;SDS011;9417;16.484;102.872;2022-12-07T03:28:03;2.83;;;1.40;;
18574;SDS011;9417;16.484;102.872;2022-12-07T03:30:13;4.38;;;1.65;;
18574;SDS011;9417;16.484;102.872;2022-12-07T03:32:25;2.22;;;1.30;;
18574;SDS011;9417;16.484;102.872;2022-12-07T03:34:38;2.78;;;1.40;;
18574;SDS011;9417;16.484;102.872;2022-12-07T03:36:52;2.17;;;1.30;;
18574;SDS011;9417;16.484;102.872;2022-12-07T03:39:03;2.80;;;1.60;;
18574;SDS011;9417;16.484;102.872;2022-12-07T03:41:19;4.45;;;1.45;;
18574;SDS011;9417;16.484;102.872;2022-12-07T03:43:29;2.63;;;1.48;;
18574;SDS011;9417;16.484;102.872;2022-12-07T03:45:38;3.08;;;1.63;;
18574;SDS011;9417;16.484;102.872;2022-12-07T03:47:50;3.38;;;1.73;;
18574;SDS011;9417;16.484;102.872;2022-12-07T03:50:09;2.33;;;1.47;;
18574;SDS011;9417;16.484;102.872;2022-12-07T03:52:22;2.90;;;1.65;;
18574;SDS011;9417;16.484;102.872;2022-12-07T03:54:34;2.10;;;1.52;;
18574;SDS011;9417;16.484;102.872;2022-12-07T03:56:58;2.70;;;1.90;;
18574;SDS011;9417;16.484;102.872;2022-12-07T03:59:07;2.22;;;1.58;;
18574;SDS011;9417;16.484;102.872;2022-12-07T04:01:14;3.92;;;1.90;;
18574;SDS011;9417;16.484;102.872;2022-12-07T04:03:25;2.47;;;1.60;;
18574;SDS011;9417;16.484;102.872;2022-12-07T04:05:32;3.60;;;1.63;;
18574;SDS011;9417;16.484;102.872;2022-12-07T04:07:40;1.98;;;1.45;;
18574;SDS011;9417;16.484;102.872;2022-12-07T04:09:47;2.45;;;1.40;;
18574;SDS011;9417;16.484;102.872;2022-12-07T04:11:55;2.67;;;1.25;;
18574;SDS011;9417;16.484;102.872;2022-12-07T04:14:02;2.40;;;1.58;;
18574;SDS011;9417;16.484;102.872;2022-12-07T04:16:25;2.53;;;1.58;;
18574;SDS011;9417;16.484;102.872;2022-12-07T04:18:34;2.42;;;1.50;;
18574;SDS011;9417;16.484;102.872;2022-12-07T04:20:41;2.40;;;1.58;;
18574;SDS011;9417;16.484;102.872;2022-12-07T04:22:48;1.52;;;1.30;;
18574;SDS011;9417;16.484;102.872;2022-12-07T04:24:55;3.35;;;1.60;;
18574;SDS011;9417;16.484;102.872;2022-12-07T04:27:02;2.55;;;1.65;;
18574;SDS011;9417;16.484;102.872;2022-12-07T04:29:10;1.90;;;1.30;;
18574;SDS011;9417;16.484;102.872;2022-12-07T04:31:17;2.75;;;1.83;;
18574;SDS011;9417;16.484;102.872;2022-12-07T04:33:26;2.78;;;1.35;;
18574;SDS011;9417;16.484;102.872;2022-12-07T04:35:36;2.13;;;1.30;;
18574;SDS011;9417;16.484;102.872;2022-12-07T04:37:43;2.38;;;1.40;;
18574;SDS011;9417;16.484;102.872;2022-12-07T04:39:50;2.00;;;1.40;;
18574;SDS011;9417;16.484;102.872;2022-12-07T04:41:58;2.22;;;1.23;;
18574;SDS011;9417;16.484;102.872;2022-12-07T04:44:06;2.58;;;1.50;;
18574;SDS011;9417;16.484;102.872;2022-12-07T04:46:14;2.58;;;1.58;;
18574;SDS011;9417;16.484;102.872;2022-12-07T04:48:21;2.97;;;1.92;;
18574;SDS011;9417;16.484;102.872;2022-12-07T04:50:28;3.53;;;1.80;;
18574;SDS011;9417;16.484;102.872;2022-12-07T04:52:39;2.53;;;1.65;;
18574;SDS011;9417;16.484;102.872;2022-12-07T04:54:49;2.78;;;1.80;;
18574;SDS011;9417;16.484;102.872;2022-12-07T04:56:57;2.72;;;1.77;;
18574;SDS011;9417;16.484;102.872;2022-12-07T04:59:05;3.03;;;1.70;;
18574;SDS011;9417;16.484;102.872;2022-12-07T05:01:12;2.28;;;1.50;;
18574;SDS011;9417;16.484;102.872;2022-12-07T05:03:21;2.25;;;1.30;;
18574;SDS011;9417;16.484;102.872;2022-12-07T05:05:28;2.17;;;1.35;;
18574;SDS011;9417;16.484;102.872;2022-12-07T05:07:37;2.33;;;1.30;;
18574;SDS011;9417;16.484;102.872;2022-12-07T05:09:44;2.30;;;1.60;;
18574;SDS011;9417;16.484;102.872;2022-12-07T05:11:51;1.80;;;1.33;;
18574;SDS011;9417;16.484;102.872;2022-12-07T05:13:59;2.53;;;1.55;;
18574;SDS011;9417;16.484;102.872;2022-12-07T05:16:06;2.55;;;1.50;;
18574;SDS011;9417;16.484;102.872;2022-12-07T05:18:13;2.70;;;1.30;;
18574;SDS011;9417;16.484;102.872;2022-12-07T05:20:20;2.78;;;1.50;;
18574;SDS011;9417;16.484;102.872;2022-12-07T05:22:27;2.90;;;1.52;;
18574;SDS011;9417;16.484;102.872;2022-12-07T05:24:37;2.42;;;1.38;;
18574;SDS011;9417;16.484;102.872;2022-12-07T05:26:44;2.95;;;1.95;;
18574;SDS011;9417;16.484;102.872;2022-12-07T05:28:52;1.80;;;1.35;;
18574;SDS011;9417;16.484;102.872;2022-12-07T05:31:00;2.70;;;1.48;;
18574;SDS011;9417;16.484;102.872;2022-12-07T05:33:07;1.70;;;1.48;;
18574;SDS011;9417;16.484;102.872;2022-12-07T05:35:14;5.70;;;1.40;;
18574;SDS011;9417;16.484;102.872;2022-12-07T05:37:22;2.83;;;1.40;;
18574;SDS011;9417;16.484;102.872;2022-12-07T05:39:29;2.25;;;1.27;;
18574;SDS011;9417;16.484;102.872;2022-12-07T05:41:38;2.15;;;1.40;;
18574;SDS011;9417;16.484;102.872;2022-12-07T05:44:01;3.65;;;1.50;;
18574;SDS011;9417;16.484;102.872;2022-12-07T05:46:08;1.67;;;1.10;;
18574;SDS011;9417;16.484;102.872;2022-12-07T05:48:16;1.95;;;1.38;;
18574;SDS011;9417;16.484;102.872;2022-12-07T05:50:23;2.70;;;1.27;;
18574;SDS011;9417;16.484;102.872;2022-12-07T05:52:37;2.65;;;1.42;;
18574;SDS011;9417;16.484;102.872;2022-12-07T05:54:44;2.13;;;1.33;;
18574;SDS011;9417;16.484;102.872;2022-12-07T05:56:53;4.10;;;1.48;;
18574;SDS011;9417;16.484;102.872;2022-12-07T05:59:00;2.28;;;1.17;;
18574;SDS011;9417;16.484;102.872;2022-12-07T06:01:24;4.68;;;1.20;;
18574;SDS011;9417;16.484;102.872;2022-12-07T06:03:32;5.25;;;1.98;;
18574;SDS011;9417;16.484;102.872;2022-12-07T06:05:39;10.50;;;4.05;;
18574;SDS011;9417;16.484;102.872;2022-12-07T06:07:47;2.03;;;1.45;;
18574;SDS011;9417;16.484;102.872;2022-12-07T06:09:54;3.22;;;1.50;;
18574;SDS011;9417;16.484;102.872;2022-12-07T06:12:04;2.22;;;1.30;;
18574;SDS011;9417;16.484;102.872;2022-12-07T06:14:28;3.28;;;1.55;;
18574;SDS011;9417;16.484;102.872;2022-12-07T06:16:35;3.33;;;1.70;;
18574;SDS011;9417;16.484;102.872;2022-12-07T06:18:42;1.85;;;1.00;;
18574;SDS011;9417;16.484;102.872;2022-12-07T06:20:50;2.80;;;1.35;;
18574;SDS011;9417;16.484;102.872;2022-12-07T06:22:57;2.28;;;1.17;;
18574;SDS011;9417;16.484;102.872;2022-12-07T06:25:05;2.15;;;1.27;;
18574;SDS011;9417;16.484;102.872;2022-12-07T06:27:14;1.40;;;0.90;;
18574;SDS011;9417;16.484;102.872;2022-12-07T06:29:22;1.38;;;1.00;;
18574;SDS011;9417;16.484;102.872;2022-12-07T06:31:28;1.42;;;1.05;;
18574;SDS011;9417;16.484;102.872;2022-12-07T06:33:36;1.10;;;1.00;;
18574;SDS011;9417;16.484;102.872;2022-12-07T06:35:43;1.50;;;1.00;;
18574;SDS011;9417;16.484;102.872;2022-12-07T06:37:50;1.40;;;1.08;;
18574;SDS011;9417;16.484;102.872;2022-12-07T06:39:57;1.85;;;1.02;;
18574;SDS011;9417;16.484;102.872;2022-12-07T06:42:05;1.60;;;1.08;;
18574;SDS011;9417;16.484;102.872;2022-12-07T06:44:14;1.20;;;0.90;;
18574;SDS011;9417;16.484;102.872;2022-12-07T06:46:22;1.73;;;1.13;;
18574;SDS011;9417;16.484;102.872;2022-12-07T06:48:29;2.65;;;0.93;;
18574;SDS011;9417;16.484;102.872;2022-12-07T06:50:37;1.35;;;1.00;;
18574;SDS011;9417;16.484;102.872;2022-12-07T06:52:44;1.85;;;0.90;;
18574;SDS011;9417;16.484;102.872;2022-12-07T06:54:51;1.58;;;1.10;;
18574;SDS011;9417;16.484;102.872;2022-12-07T06:56:58;1.92;;;0.93;;
18574;SDS011;9417;16.484;102.872;2022-12-07T06:59:06;1.38;;;0.93;;
18574;SDS011;9417;16.484;102.872;2022-12-07T07:01:15;1.83;;;1.02;;
18574;SDS011;9417;16.484;102.872;2022-12-07T07:03:24;2.30;;;1.17;;
18574;SDS011;9417;16.484;102.872;2022-12-07T07:05:31;1.23;;;1.02;;
18574;SDS011;9417;16.484;102.872;2022-12-07T07:07:39;3.60;;;0.95;;
18574;SDS011;9417;16.484;102.872;2022-12-07T07:10:06;1.13;;;0.90;;
18574;SDS011;9417;16.484;102.872;2022-12-07T07:12:14;1.33;;;0.90;;
18574;SDS011;9417;16.484;102.872;2022-12-07T07:14:21;2.38;;;1.00;;
18574;SDS011;9417;16.484;102.872;2022-12-07T07:16:30;2.17;;;0.95;;
18574;SDS011;9417;16.484;102.872;2022-12-07T07:18:38;2.35;;;1.38;;
18574;SDS011;9417;16.484;102.872;2022-12-07T07:20:45;1.52;;;1.05;;
18574;SDS011;9417;16.484;102.872;2022-12-07T07:22:53;1.88;;;0.98;;
18574;SDS011;9417;16.484;102.872;2022-12-07T07:25:01;2.55;;;1.20;;
18574;SDS011;9417;16.484;102.872;2022-12-07T07:27:08;1.83;;;1.20;;
18574;SDS011;9417;16.484;102.872;2022-12-07T07:29:16;2.20;;;0.90;;
18574;SDS011;9417;16.484;102.872;2022-12-07T07:31:23;1.15;;;0.80;;
18574;SDS011;9417;16.484;102.872;2022-12-07T07:33:32;1.60;;;1.13;;
18574;SDS011;9417;16.484;102.872;2022-12-07T07:35:39;1.95;;;1.17;;
18574;SDS011;9417;16.484;102.872;2022-12-07T07:37:47;2.95;;;1.05;;
18574;SDS011;9417;16.484;102.872;2022-12-07T07:39:54;1.48;;;0.90;;
18574;SDS011;9417;16.484;102.872;2022-12-07T07:42:02;2.22;;;1.20;;
18574;SDS011;9417;16.484;102.872;2022-12-07T07:44:09;2.70;;;1.13;;
18574;SDS011;9417;16.484;102.872;2022-12-07T07:46:17;1.75;;;1.00;;
18574;SDS011;9417;16.484;102.872;2022-12-07T07:48:24;2.17;;;1.15;;
18574;SDS011;9417;16.484;102.872;2022-12-07T07:50:33;1.90;;;1.00;;
18574;SDS011;9417;16.484;102.872;2022-12-07T07:52:40;2.15;;;1.10;;
18574;SDS011;9417;16.484;102.872;2022-12-07T07:54:48;2.03;;;1.00;;
18574;SDS011;9417;16.484;102.872;2022-12-07T07:56:56;2.25;;;0.85;;
18574;SDS011;9417;16.484;102.872;2022-12-07T07:59:03;1.52;;;1.00;;
18574;SDS011;9417;16.484;102.872;2022-12-07T08:01:10;1.42;;;0.95;;
18574;SDS011;9417;16.484;102.872;2022-12-07T08:03:18;2.60;;;0.93;;
18574;SDS011;9417;16.484;102.872;2022-12-07T08:05:26;4.35;;;1.48;;
18574;SDS011;9417;16.484;102.872;2022-12-07T08:07:35;1.85;;;1.48;;
18574;SDS011;9417;16.484;102.872;2022-12-07T08:09:42;1.20;;;1.05;;
18574;SDS011;9417;16.484;102.872;2022-12-07T08:12:08;2.50;;;1.20;;
18574;SDS011;9417;16.484;102.872;2022-12-07T08:14:15;2.15;;;1.30;;
18574;SDS011;9417;16.484;102.872;2022-12-07T08:16:23;1.50;;;1.10;;
18574;SDS011;9417;16.484;102.872;2022-12-07T08:18:30;1.65;;;1.20;;
18574;SDS011;9417;16.484;102.872;2022-12-07T08:20:40;1.88;;;1.23;;
18574;SDS011;9417;16.484;102.872;2022-12-07T08:22:49;1.85;;;1.08;;
18574;SDS011;9417;16.484;102.872;2022-12-07T08:24:57;1.60;;;1.27;;
18574;SDS011;9417;16.484;102.872;2022-12-07T08:27:04;2.30;;;1.40;;
18574;SDS011;9417;16.484;102.872;2022-12-07T08:29:11;2.17;;;1.50;;
18574;SDS011;9417;16.484;102.872;2022-12-07T08:31:18;1.98;;;1.33;;
18574;SDS011;9417;16.484;102.872;2022-12-07T08:33:26;2.55;;;1.73;;
18574;SDS011;9417;16.484;102.872;2022-12-07T08:35:34;3.13;;;1.70;;
18574;SDS011;9417;16.484;102.872;2022-12-07T08:37:43;2.20;;;1.55;;
18574;SDS011;9417;16.484;102.872;2022-12-07T08:39:53;2.55;;;1.60;;
18574;SDS011;9417;16.484;102.872;2022-12-07T08:42:00;4.57;;;1.65;;
18574;SDS011;9417;16.484;102.872;2022-12-07T08:44:07;3.05;;;1.95;;
18574;SDS011;9417;16.484;102.872;2022-12-07T08:46:16;2.88;;;1.60;;
18574;SDS011;9417;16.484;102.872;2022-12-07T08:48:27;2.45;;;1.50;;
18574;SDS011;9417;16.484;102.872;2022-12-07T08:50:35;3.65;;;1.75;;
18574;SDS011;9417;16.484;102.872;2022-12-07T08:52:51;1.92;;;1.08;;
18574;SDS011;9417;16.484;102.872;2022-12-07T08:55:02;2.63;;;1.75;;
18574;SDS011;9417;16.484;102.872;2022-12-07T08:57:11;4.18;;;1.85;;
18574;SDS011;9417;16.484;102.872;2022-12-07T08:59:18;1.92;;;1.40;;
18574;SDS011;9417;16.484;102.872;2022-12-07T09:01:27;2.97;;;1.50;;
18574;SDS011;9417;16.484;102.872;2022-12-07T09:03:35;4.65;;;1.58;;
18574;SDS011;9417;16.484;102.872;2022-12-07T09:05:42;2.38;;;1.80;;
18574;SDS011;9417;16.484;102.872;2022-12-07T09:07:50;2.88;;;1.30;;
18574;SDS011;9417;16.484;102.872;2022-12-07T09:10:02;3.08;;;1.40;;
18574;SDS011;9417;16.484;102.872;2022-12-07T09:12:10;2.28;;;1.65;;
18574;SDS011;9417;16.484;102.872;2022-12-07T09:14:18;2.05;;;1.42;;
18574;SDS011;9417;16.484;102.872;2022-12-07T09:16:25;2.75;;;1.40;;
18574;SDS011;9417;16.484;102.872;2022-12-07T09:18:33;1.98;;;1.50;;
18574;SDS011;9417;16.484;102.872;2022-12-07T09:20:40;1.83;;;1.20;;
18574;SDS011;9417;16.484;102.872;2022-12-07T09:22:47;1.58;;;1.20;;
18574;SDS011;9417;16.484;102.872;2022-12-07T09:24:54;3.25;;;1.20;;
18574;SDS011;9417;16.484;102.872;2022-12-07T09:27:03;2.65;;;1.23;;
18574;SDS011;9417;16.484;102.872;2022-12-07T09:29:11;1.50;;;1.00;;
18574;SDS011;9417;16.484;102.872;2022-12-07T09:31:18;1.40;;;1.10;;
18574;SDS011;9417;16.484;102.872;2022-12-07T09:33:27;2.08;;;1.10;;
18574;SDS011;9417;16.484;102.872;2022-12-07T09:35:34;2.13;;;1.13;;
18574;SDS011;9417;16.484;102.872;2022-12-07T09:37:41;1.80;;;1.10;;
18574;SDS011;9417;16.484;102.872;2022-12-07T09:39:49;3.03;;;1.00;;
18574;SDS011;9417;16.484;102.872;2022-12-07T09:41:56;2.75;;;1.00;;
18574;SDS011;9417;16.484;102.872;2022-12-07T09:44:06;1.52;;;1.00;;
18574;SDS011;9417;16.484;102.872;2022-12-07T09:46:17;1.60;;;1.10;;
18574;SDS011;9417;16.484;102.872;2022-12-07T09:48:28;1.85;;;1.27;;
18574;SDS011;9417;16.484;102.872;2022-12-07T09:50:37;1.75;;;0.82;;
18574;SDS011;9417;16.484;102.872;2022-12-07T09:52:46;1.83;;;1.13;;
18574;SDS011;9417;16.484;102.872;2022-12-07T09:54:54;1.60;;;1.05;;
18574;SDS011;9417;16.484;102.872;2022-12-07T09:57:02;2.92;;;1.35;;
18574;SDS011;9417;16.484;102.872;2022-12-07T09:59:12;2.55;;;1.50;;
18574;SDS011;9417;16.484;102.872;2022-12-07T10:01:23;1.92;;;1.45;;
18574;SDS011;9417;16.484;102.872;2022-12-07T10:03:30;2.78;;;1.50;;
18574;SDS011;9417;16.484;102.872;2022-12-07T10:05:38;2.70;;;1.50;;
18574;SDS011;9417;16.484;102.872;2022-12-07T10:07:48;4.47;;;1.67;;
18574;SDS011;9417;16.484;102.872;2022-12-07T10:09:55;4.57;;;1.90;;
18574;SDS011;9417;16.484;102.872;2022-12-07T10:12:04;5.10;;;1.95;;
18574;SDS011;9417;16.484;102.872;2022-12-07T10:14:14;4.25;;;1.75;;
18574;SDS011;9417;16.484;102.872;2022-12-07T10:16:32;4.70;;;2.30;;
18574;SDS011;9417;16.484;102.872;2022-12-07T10:18:43;5.13;;;2.30;;
18574;SDS011;9417;16.484;102.872;2022-12-07T10:20:59;5.10;;;1.90;;
18574;SDS011;9417;16.484;102.872;2022-12-07T10:23:13;8.98;;;2.80;;
18574;SDS011;9417;16.484;102.872;2022-12-07T10:25:22;6.38;;;2.10;;
18574;SDS011;9417;16.484;102.872;2022-12-07T10:27:32;4.78;;;2.88;;
18574;SDS011;9417;16.484;102.872;2022-12-07T10:29:42;4.22;;;2.60;;
18574;SDS011;9417;16.484;102.872;2022-12-07T10:31:54;7.30;;;3.38;;
18574;SDS011;9417;16.484;102.872;2022-12-07T10:34:08;6.82;;;3.45;;
18574;SDS011;9417;16.484;102.872;2022-12-07T10:36:33;5.68;;;2.75;;
18574;SDS011;9417;16.484;102.872;2022-12-07T10:38:44;4.22;;;2.50;;
18574;SDS011;9417;16.484;102.872;2022-12-07T10:41:02;5.30;;;2.33;;
18574;SDS011;9417;16.484;102.872;2022-12-07T10:43:17;2.97;;;2.08;;
18574;SDS011;9417;16.484;102.872;2022-12-07T10:45:26;4.97;;;2.22;;
18574;SDS011;9417;16.484;102.872;2022-12-07T10:47:41;3.72;;;2.00;;
18574;SDS011;9417;16.484;102.872;2022-12-07T10:50:01;3.33;;;1.85;;
18574;SDS011;9417;16.484;102.872;2022-12-07T10:52:28;3.38;;;1.70;;
18574;SDS011;9417;16.484;102.872;2022-12-07T10:54:47;4.45;;;2.05;;
18574;SDS011;9417;16.484;102.872;2022-12-07T10:57:11;4.47;;;2.55;;
18574;SDS011;9417;16.484;102.872;2022-12-07T11:02:14;4.20;;;2.50;;
18574;SDS011;9417;16.484;102.872;2022-12-07T11:04:34;4.68;;;3.20;;
18574;SDS011;9417;16.484;102.872;2022-12-07T11:06:47;6.95;;;3.20;;
18574;SDS011;9417;16.484;102.872;2022-12-07T11:09:08;8.80;;;3.88;;
18574;SDS011;9417;16.484;102.872;2022-12-07T11:11:56;7.00;;;3.30;;
18574;SDS011;9417;16.484;102.872;2022-12-07T11:14:12;8.35;;;3.42;;
18574;SDS011;9417;16.484;102.872;2022-12-07T11:16:29;7.32;;;3.38;;
18574;SDS011;9417;16.484;102.872;2022-12-07T11:18:52;7.78;;;3.60;;
18574;SDS011;9417;16.484;102.872;2022-12-07T11:21:25;8.00;;;3.35;;
18574;SDS011;9417;16.484;102.872;2022-12-07T11:23:40;9.38;;;3.35;;
18574;SDS011;9417;16.484;102.872;2022-12-07T11:25:56;7.60;;;3.00;;
18574;SDS011;9417;16.484;102.872;2022-12-07T11:28:15;5.63;;;3.70;;
18574;SDS011;9417;16.484;102.872;2022-12-07T11:30:33;8.57;;;4.70;;
18574;SDS011;9417;16.484;102.872;2022-12-07T11:33:02;11.70;;;5.63;;
18574;SDS011;9417;16.484;102.872;2022-12-07T11:35:21;13.85;;;7.30;;
18574;SDS011;9417;16.484;102.872;2022-12-07T11:37:37;11.48;;;6.80;;
18574;SDS011;9417;16.484;102.872;2022-12-07T11:39:47;10.40;;;6.00;;
18574;SDS011;9417;16.484;102.872;2022-12-07T11:42:00;8.65;;;5.47;;
18574;SDS011;9417;16.484;102.872;2022-12-07T11:44:16;10.75;;;5.30;;
18574;SDS011;9417;16.484;102.872;2022-12-07T11:46:35;10.07;;;5.32;;
18574;SDS011;9417;16.484;102.872;2022-12-07T11:48:51;11.10;;;5.68;;
18574;SDS011;9417;16.484;102.872;2022-12-07T11:51:09;11.85;;;6.75;;
18574;SDS011;9417;16.484;102.872;2022-12-07T11:53:18;14.10;;;7.10;;
18574;SDS011;9417;16.484;102.872;2022-12-07T11:55:29;14.07;;;8.10;;
18574;SDS011;9417;16.484;102.872;2022-12-07T11:57:44;16.13;;;8.85;;
18574;SDS011;9417;16.484;102.872;2022-12-07T11:59:58;15.38;;;8.60;;
18574;SDS011;9417;16.484;102.872;2022-12-07T12:02:11;14.63;;;8.57;;
18574;SDS011;9417;16.484;102.872;2022-12-07T12:04:26;12.88;;;8.07;;
18574;SDS011;9417;16.484;102.872;2022-12-07T12:06:46;16.75;;;8.48;;
18574;SDS011;9417;16.484;102.872;2022-12-07T12:08:54;14.48;;;8.40;;
18574;SDS011;9417;16.484;102.872;2022-12-07T12:11:30;14.23;;;8.32;;
18574;SDS011;9417;16.484;102.872;2022-12-07T12:14:01;14.38;;;7.85;;
18574;SDS011;9417;16.484;102.872;2022-12-07T12:16:54;14.05;;;7.72;;
18574;SDS011;9417;16.484;102.872;2022-12-07T12:19:23;13.88;;;8.23;;
18574;SDS011;9417;16.484;102.872;2022-12-07T12:21:36;13.15;;;8.07;;
18574;SDS011;9417;16.484;102.872;2022-12-07T12:23:47;14.55;;;7.75;;
18574;SDS011;9417;16.484;102.872;2022-12-07T12:25:56;12.65;;;7.30;;
18574;SDS011;9417;16.484;102.872;2022-12-07T12:28:15;13.30;;;7.72;;
18574;SDS011;9417;16.484;102.872;2022-12-07T12:30:33;12.55;;;7.50;;
18574;SDS011;9417;16.484;102.872;2022-12-07T12:32:42;12.93;;;7.93;;
18574;SDS011;9417;16.484;102.872;2022-12-07T12:35:00;13.45;;;7.82;;
18574;SDS011;9417;16.484;102.872;2022-12-07T12:37:42;12.38;;;7.88;;
18574;SDS011;9417;16.484;102.872;2022-12-07T12:42:45;13.07;;;8.18;;
18574;SDS011;9417;16.484;102.872;2022-12-07T12:55:11;13.00;;;7.90;;
18574;SDS011;9417;16.484;102.872;2022-12-07T12:57:24;14.75;;;8.85;;
18574;SDS011;9417;16.484;102.872;2022-12-07T12:59:36;17.45;;;8.63;;
18574;SDS011;9417;16.484;102.872;2022-12-07T13:01:44;14.45;;;8.93;;
18574;SDS011;9417;16.484;102.872;2022-12-07T13:03:52;12.55;;;8.27;;
18574;SDS011;9417;16.484;102.872;2022-12-07T13:06:19;17.75;;;8.25;;
18574;SDS011;9417;16.484;102.872;2022-12-07T13:08:40;12.07;;;7.75;;
18574;SDS011;9417;16.484;102.872;2022-12-07T13:10:47;11.57;;;7.65;;
18574;SDS011;9417;16.484;102.872;2022-12-07T13:12:55;12.98;;;8.35;;
18574;SDS011;9417;16.484;102.872;2022-12-07T13:15:19;13.73;;;8.02;;